Terminal Aerodrome Forecast
Issued by NWS

Home | Current Version | Previous Version | Text Only | Print | Product List | Glossary On
Versions: 1 2 3 4 5 6 7 8 9 10 11 12 13 14 15 16 17 18 19
697
FTUS44 KLIX 171737
TAFMSY
TAF
KMSY 171737Z 1718/1824 23009KT P6SM SCT020 BKN080
     FM180300 23005KT 6SM BR SCT040 BKN130
     FM180500 25004KT 5SM BR BKN030 BKN035
     FM180700 27004KT 2SM BR BKN003 BKN035
     FM180800 30004KT 1/2SM FG BKN003 BKN025
     FM181300 27004KT 3SM BR BKN005 BKN035
     FM181400 07004KT P6SM BKN003 BKN020
     FM181700 14006KT P6SM BKN045=

USA.gov is the U.S. government's official web portal to all federal, state and local government web resources and services.